createdAt,value
2016-12-16T00:00:05.378Z,6.65
2016-12-16T00:01:15.400Z,6.6
2016-12-16T00:02:25.725Z,6.54
2016-12-16T00:03:36.042Z,6.55
2016-12-16T00:04:46.042Z,6.55
2016-12-16T00:05:56.380Z,6.55
2016-12-16T00:07:06.388Z,6.54
2016-12-16T00:08:16.713Z,6.54
2016-12-16T00:09:27.050Z,6.51
2016-12-16T00:10:37.102Z,6.57
2016-12-16T00:11:47.428Z,6.57
2016-12-16T00:12:57.451Z,6.54
2016-12-16T00:14:07.773Z,6.55
2016-12-16T00:15:17.476Z,6.62
2016-12-16T00:16:27.505Z,6.65
2016-12-16T00:17:37.836Z,6.52
2016-12-16T00:18:47.539Z,6.57
2016-12-16T00:19:57.860Z,6.6
2016-12-16T00:21:08.175Z,6.54
2016-12-16T00:22:18.504Z,6.54
2016-12-16T00:23:27.582Z,6.57
2016-12-16T00:24:36.979Z,6.51
2016-12-16T00:25:47.008Z,6.54
2016-12-16T00:26:57.005Z,6.49
2016-12-16T00:28:06.725Z,6.58
2016-12-16T00:29:17.054Z,6.6
2016-12-16T00:30:27.376Z,6.55
2016-12-16T00:31:37.379Z,6.54
2016-12-16T00:32:47.394Z,6.51
2016-12-16T00:33:57.436Z,6.55
2016-12-16T00:35:07.756Z,6.44
2016-12-16T00:36:18.114Z,6.34
2016-12-16T00:37:28.435Z,6.34
2016-12-16T00:38:38.758Z,6.28
2016-12-16T00:39:48.785Z,6.33
2016-12-16T00:40:58.178Z,6.36
2016-12-16T00:42:08.132Z,6.33
2016-12-16T00:43:18.455Z,6.17
2016-12-16T00:44:28.471Z,6.09
2016-12-16T00:45:38.177Z,6.07
2016-12-16T00:46:48.504Z,6.02
2016-12-16T00:47:58.517Z,5.92
2016-12-16T00:49:08.838Z,5.98
2016-12-16T00:50:18.539Z,5.89
2016-12-16T00:51:28.566Z,5.81
2016-12-16T00:52:38.912Z,5.87
2016-12-16T00:53:48.920Z,5.8
2016-12-16T00:54:58.943Z,5.84
2016-12-16T00:56:08.345Z,5.77
2016-12-16T00:57:18.367Z,5.7
2016-12-16T00:58:28.372Z,5.75
2016-12-16T00:59:38.699Z,5.8
2016-12-16T01:00:49.021Z,5.8
2016-12-16T01:01:58.752Z,5.77
2016-12-16T01:03:08.778Z,5.81
2016-12-16T01:04:18.819Z,5.69
2016-12-16T01:05:29.147Z,5.72
2016-12-16T01:06:39.156Z,5.7
2016-12-16T01:07:48.265Z,5.66
2016-12-16T01:08:58.588Z,5.7
2016-12-16T01:10:08.603Z,5.7
2016-12-16T01:11:18.309Z,5.62
2016-12-16T01:12:28.324Z,5.7
2016-12-16T01:13:38.649Z,5.67
2016-12-16T01:14:48.976Z,5.57
2016-12-16T01:15:59.005Z,5.59
2016-12-16T01:17:09.019Z,5.55
2016-12-16T01:18:19.350Z,5.55
2016-12-16T01:19:29.389Z,5.51
2016-12-16T01:20:39.412Z,5.51
2016-12-16T01:21:49.756Z,5.48
2016-12-16T01:22:59.807Z,5.42
2016-12-16T01:24:09.815Z,5.45
2016-12-16T01:25:19.836Z,5.48
2016-12-16T01:26:29.223Z,5.37
2016-12-16T01:27:39.550Z,5.45
2016-12-16T01:28:49.560Z,5.34
2016-12-16T01:29:58.955Z,5.41
2016-12-16T01:31:08.668Z,5.39
2016-12-16T01:32:19.001Z,5.26
2016-12-16T01:33:29.017Z,5.27
2016-12-16T01:34:39.349Z,5.21
2016-12-16T01:35:49.686Z,5.28
2016-12-16T01:36:59.997Z,5.15
2016-12-16T01:38:09.705Z,5.09
2016-12-16T01:39:19.391Z,5.06
2016-12-16T01:40:29.716Z,5.09
2016-12-16T01:41:40.052Z,4.95
2016-12-16T01:42:49.761Z,5.05
2016-12-16T01:43:59.777Z,4.95
2016-12-16T01:45:10.105Z,4.9
2016-12-16T01:46:20.421Z,4.88
2016-12-16T01:47:30.753Z,4.84
2016-12-16T01:48:41.085Z,4.84
2016-12-16T01:49:51.086Z,4.75
2016-12-16T01:51:01.403Z,4.66
2016-12-16T01:52:11.411Z,4.64
2016-12-16T01:53:21.746Z,4.65
2016-12-16T01:54:32.083Z,4.58
2016-12-16T01:55:42.090Z,4.61
2016-12-16T01:56:51.796Z,4.57
2016-12-16T01:58:02.134Z,4.54
2016-12-16T01:59:11.869Z,4.47
2016-12-16T02:00:21.572Z,4.51
2016-12-16T02:01:31.889Z,4.48
2016-12-16T02:02:41.915Z,4.35
2016-12-16T02:03:52.259Z,4.48
2016-12-16T02:05:02.583Z,4.44
2016-12-16T02:06:12.912Z,4.44
2016-12-16T02:07:22.917Z,4.44
2016-12-16T02:08:32.627Z,4.33
2016-12-16T02:09:42.946Z,4.38
2016-12-16T02:10:52.981Z,4.18
2016-12-16T02:12:03.322Z,4.2
2016-12-16T02:13:13.651Z,4.28
2016-12-16T02:14:23.977Z,4.28
2016-12-16T02:15:34.300Z,4.15
2016-12-16T02:16:44.659Z,4.24
2016-12-16T02:17:54.666Z,4.3
2016-12-16T02:19:04.683Z,4.22
2016-12-16T02:20:14.379Z,4.12
2016-12-16T02:21:24.091Z,4.17
2016-12-16T02:22:34.417Z,4.21
2016-12-16T02:23:44.435Z,4.12
2016-12-16T02:24:54.766Z,4.1
2016-12-16T02:26:05.114Z,4.07
2016-12-16T02:27:15.129Z,4.07
2016-12-16T02:28:25.140Z,4
2016-12-16T02:29:35.469Z,4.02
2016-12-16T02:30:45.790Z,3.93
2016-12-16T02:31:55.806Z,3.92
2016-12-16T02:33:06.163Z,3.89
2016-12-16T02:34:16.483Z,4
2016-12-16T02:35:26.483Z,3.93
2016-12-16T02:36:36.497Z,3.86
2016-12-16T02:37:46.835Z,3.82
2016-12-16T02:38:56.531Z,3.92
2016-12-16T02:40:06.233Z,3.89
2016-12-16T02:41:16.555Z,3.85
2016-12-16T02:42:26.572Z,3.84
2016-12-16T02:43:36.903Z,3.81
2016-12-16T02:44:46.909Z,3.82
2016-12-16T02:45:57.229Z,3.74
2016-12-16T02:47:07.569Z,3.72
2016-12-16T02:48:17.881Z,3.64
2016-12-16T02:49:27.896Z,3.69
2016-12-16T02:50:38.217Z,3.66
2016-12-16T02:51:48.230Z,3.58
2016-12-16T02:52:58.567Z,3.6
2016-12-16T02:54:08.884Z,3.58
2016-12-16T02:55:18.881Z,3.63
2016-12-16T02:56:28.896Z,3.6
2016-12-16T02:57:39.219Z,3.71
2016-12-16T02:58:48.320Z,3.63
2016-12-16T02:59:58.328Z,3.66
2016-12-16T03:01:08.336Z,3.61
2016-12-16T03:32:44.294Z,-0.37
2016-12-16T03:33:53.980Z,-0.38
2016-12-16T03:35:03.367Z,-0.23
2016-12-16T03:36:13.379Z,-0.22
2016-12-16T03:37:23.725Z,0.06
2016-12-16T03:38:33.733Z,0.1
2016-12-16T03:39:44.067Z,0.47
2016-12-16T03:40:53.785Z,0.72
2016-12-16T03:42:04.109Z,0.94
2016-12-16T03:43:14.123Z,1.14
2016-12-16T03:44:23.500Z,1.32
2016-12-16T03:45:33.514Z,1.58
2016-12-16T03:46:43.525Z,1.79
2016-12-16T03:47:53.870Z,1.94
2016-12-16T03:49:04.187Z,2.18
2016-12-16T03:50:14.200Z,2.3
2016-12-16T03:51:24.525Z,2.4
2016-12-16T03:52:34.869Z,2.63
2016-12-16T03:53:45.199Z,2.72
2016-12-16T03:54:54.591Z,2.8
2016-12-16T03:56:04.927Z,2.87
2016-12-16T03:57:15.236Z,2.95
2016-12-16T03:58:25.256Z,3.11
2016-12-16T03:59:34.962Z,3.09
2016-12-16T04:00:45.270Z,3.26
2016-12-16T04:01:55.581Z,3.29
2016-12-16T04:03:05.892Z,3.32
2016-12-16T04:04:16.449Z,3.35
2016-12-16T04:05:26.772Z,3.43
2016-12-16T04:06:37.110Z,3.54
2016-12-16T04:07:47.120Z,3.61
2016-12-16T04:08:57.475Z,3.51
2016-12-16T04:10:07.804Z,3.53
2016-12-16T04:11:17.816Z,3.49
2016-12-16T04:12:28.142Z,3.48
2016-12-16T04:13:38.152Z,3.51
2016-12-16T04:14:48.159Z,3.6
2016-12-16T04:15:58.465Z,3.51
2016-12-16T04:17:08.793Z,3.57
2016-12-16T04:18:19.096Z,3.67
2016-12-16T04:19:29.431Z,3.61
2016-12-16T04:20:39.739Z,3.61
2016-12-16T04:21:50.059Z,3.64
2016-12-16T04:23:00.386Z,3.6
2016-12-16T04:24:10.123Z,3.54
2016-12-16T04:25:20.129Z,3.48
2016-12-16T04:26:30.128Z,3.43
2016-12-16T04:27:39.817Z,3.49
2016-12-16T04:28:49.510Z,3.43
2016-12-16T04:29:59.817Z,3.45
2016-12-16T04:31:10.138Z,3.34
2016-12-16T04:32:20.466Z,3.39
2016-12-16T04:33:30.471Z,3.37
2016-12-16T04:34:40.483Z,3.34
2016-12-16T04:35:50.816Z,3.32
2016-12-16T04:37:00.207Z,3.34
2016-12-16T04:38:10.223Z,3.32
2016-12-16T04:39:20.565Z,3.3
2016-12-16T04:40:30.238Z,3.26
2016-12-16T04:41:40.578Z,3.27
2016-12-16T04:42:50.585Z,3.29
2016-12-16T04:44:00.592Z,3.32
2016-12-16T04:45:10.599Z,3.29
2016-12-16T04:46:20.940Z,3.27
2016-12-16T04:47:31.253Z,3.34
2016-12-16T04:48:41.574Z,3.24
2016-12-16T04:49:51.610Z,3.3
2016-12-16T04:51:01.642Z,3.32
2016-12-16T04:52:11.949Z,3.3
2016-12-16T04:53:21.686Z,3.27
2016-12-16T04:54:31.386Z,3.32
2016-12-16T04:55:41.709Z,3.3
2016-12-16T04:56:51.395Z,3.32
2016-12-16T04:58:01.717Z,3.3
2016-12-16T04:59:12.044Z,3.39
2016-12-16T05:00:22.358Z,3.34
2016-12-16T05:01:32.672Z,3.19
2016-12-16T05:02:43.025Z,3.24
2016-12-16T05:03:52.730Z,3.27
2016-12-16T05:05:03.062Z,3.26
2016-12-16T05:06:13.073Z,3.26
2016-12-16T05:07:22.768Z,3.27
2016-12-16T05:08:33.036Z,3.27
2016-12-16T05:09:43.391Z,3.3
2016-12-16T05:10:53.721Z,3.3
2016-12-16T05:12:03.963Z,3.34
2016-12-16T05:13:13.665Z,3.34
2016-12-16T05:14:23.375Z,3.34
2016-12-16T05:15:33.707Z,3.32
2016-12-16T05:16:43.419Z,3.34
2016-12-16T05:17:53.736Z,3.35
2016-12-16T05:19:04.097Z,3.37
2016-12-16T05:20:14.114Z,3.37
2016-12-16T05:21:24.435Z,3.21
2016-12-16T05:22:34.444Z,3.29
2016-12-16T05:23:44.141Z,3.3
2016-12-16T05:24:54.150Z,3.26
2016-12-16T05:26:04.161Z,3.45
2016-12-16T05:27:14.484Z,3.4
2016-12-16T05:28:24.196Z,3.42
2016-12-16T05:29:34.211Z,3.39
2016-12-16T05:30:44.560Z,3.4
2016-12-16T05:31:54.903Z,3.39
2016-12-16T05:33:04.598Z,3.43
2016-12-16T05:34:14.934Z,3.45
2016-12-16T05:35:24.956Z,3.48
2016-12-16T05:36:34.973Z,3.46
2016-12-16T05:37:45.004Z,3.6
2016-12-16T05:38:55.003Z,3.53
2016-12-16T05:40:04.708Z,3.54
2016-12-16T05:41:14.100Z,3.56
2016-12-16T05:42:24.420Z,3.48
2016-12-16T05:43:34.744Z,3.64
2016-12-16T05:44:45.067Z,3.66
2016-12-16T05:45:55.427Z,3.69
2016-12-16T05:47:05.773Z,3.67
2016-12-16T05:48:15.776Z,3.74
2016-12-16T05:49:26.087Z,3.71
2016-12-16T05:50:36.416Z,3.72
2016-12-16T05:51:46.386Z,3.76
2016-12-16T05:52:56.715Z,3.69
2016-12-16T05:54:06.725Z,3.67
2016-12-16T05:55:16.745Z,3.79
2016-12-16T05:56:26.757Z,3.82
2016-12-16T05:57:36.780Z,3.82
2016-12-16T05:58:46.180Z,3.81
2016-12-16T05:59:56.513Z,3.84
2016-12-16T06:01:06.205Z,3.76
2016-12-16T06:02:16.216Z,3.84
2016-12-16T06:03:26.257Z,3.81
2016-12-16T06:04:36.268Z,3.93
2016-12-16T06:05:46.293Z,3.93
2016-12-16T06:06:55.988Z,3.84
2016-12-16T06:08:06.024Z,3.82
2016-12-16T06:09:16.035Z,3.86
2016-12-16T06:10:26.359Z,4
2016-12-16T06:11:36.718Z,3.92
2016-12-16T06:12:47.093Z,3.97
2016-12-16T06:13:57.408Z,4.02
2016-12-16T06:15:07.445Z,3.97
2016-12-16T06:16:17.470Z,3.96
2016-12-16T06:17:27.793Z,3.92
2016-12-16T06:18:37.797Z,3.97
2016-12-16T06:19:48.129Z,3.97
2016-12-16T06:20:58.484Z,3.99
2016-12-16T06:22:08.495Z,3.96
2016-12-16T06:23:18.527Z,3.99
2016-12-16T06:24:28.222Z,4.07
2016-12-16T06:25:37.939Z,3.97
2016-12-16T06:26:47.956Z,4.11
2016-12-16T06:27:57.964Z,4
2016-12-16T06:29:08.005Z,4.1
2016-12-16T06:30:18.016Z,4.04
2016-12-16T06:31:28.029Z,4.1
2016-12-16T06:32:38.072Z,4.04
2016-12-16T06:33:47.801Z,4.12
2016-12-16T06:34:58.127Z,4.15
2016-12-16T06:36:08.481Z,4.15
2016-12-16T06:37:18.815Z,4.11
2016-12-16T06:38:28.539Z,4.18
2016-12-16T06:39:38.884Z,4.14
2016-12-16T06:40:49.272Z,4.2
2016-12-16T06:41:59.609Z,4.12
2016-12-16T06:43:09.315Z,4.18
2016-12-16T06:44:19.326Z,4.14
2016-12-16T06:45:29.642Z,4.22
2016-12-16T06:46:39.656Z,4.15
2016-12-16T06:47:49.977Z,4.2
2016-12-16T06:48:59.684Z,4.2
2016-12-16T06:50:09.705Z,4.22
2016-12-16T06:51:19.757Z,4.18
2016-12-16T06:52:29.779Z,4.29
2016-12-16T06:53:40.101Z,4.28
2016-12-16T06:54:50.427Z,4.24
2016-12-16T06:55:59.815Z,4.11
2016-12-16T06:57:09.557Z,4.32
2016-12-16T06:58:19.878Z,4.14
2016-12-16T06:59:29.624Z,4.2
2016-12-16T07:00:39.965Z,4.21
2016-12-16T07:01:49.717Z,4.2
2016-12-16T07:02:59.740Z,4.22
2016-12-16T07:04:10.060Z,4.33
2016-12-16T07:05:20.118Z,4.33
2016-12-16T07:06:30.469Z,4.33
2016-12-16T07:07:40.476Z,4.33
2016-12-16T07:08:50.779Z,4.35
2016-12-16T07:10:00.787Z,4.29
2016-12-16T07:11:11.110Z,4.33
2016-12-16T07:12:21.137Z,4.36
2016-12-16T07:13:30.525Z,4.3
2016-12-16T07:14:40.216Z,4.32
2016-12-16T07:15:50.257Z,4.21
2016-12-16T07:17:00.270Z,4.21
2016-12-16T07:18:10.602Z,4.28
2016-12-16T07:19:20.610Z,4.3
2016-12-16T07:20:30.931Z,4.36
2016-12-16T07:21:40.641Z,4.29
2016-12-16T07:22:50.344Z,4.14
2016-12-16T07:24:00.354Z,4.3
2016-12-16T07:25:10.048Z,4.17
2016-12-16T07:26:19.748Z,4.21
2016-12-16T07:27:29.779Z,4.3
2016-12-16T07:28:40.116Z,4.3
2016-12-16T07:29:50.128Z,4.24
2016-12-16T07:31:00.464Z,4.29
2016-12-16T07:32:10.216Z,4.36
2016-12-16T07:33:20.228Z,4.32
2016-12-16T07:34:30.559Z,4.38
2016-12-16T07:35:40.868Z,4.17
2016-12-16T07:36:51.192Z,4.24
2016-12-16T07:38:01.516Z,4.28
2016-12-16T07:39:11.872Z,4.35
2016-12-16T07:40:22.228Z,4.4
2016-12-16T07:41:32.559Z,4.39
2016-12-16T07:42:42.877Z,4.35
2016-12-16T07:43:52.274Z,4.35
2016-12-16T07:45:02.281Z,4.28
2016-12-16T07:46:12.622Z,4.36
2016-12-16T07:47:22.323Z,4.33
2016-12-16T07:48:32.335Z,4.33
2016-12-16T07:49:42.337Z,4.39
2016-12-16T07:50:52.659Z,4.35
2016-12-16T07:52:02.350Z,4.4
2016-12-16T07:53:12.051Z,4.33
2016-12-16T07:54:22.065Z,4.33
2016-12-16T07:55:32.070Z,4.33
2016-12-16T07:56:41.771Z,4.4
2016-12-16T07:57:52.109Z,4.36
2016-12-16T07:59:02.132Z,4.58
2016-12-16T08:00:12.137Z,4.53
2016-12-16T08:01:22.148Z,4.53
2016-12-16T08:02:32.156Z,4.64
2016-12-16T08:03:42.186Z,4.65
2016-12-16T08:04:52.189Z,4.74
2016-12-16T08:06:01.894Z,4.68
2016-12-16T08:07:11.908Z,4.75
2016-12-16T08:08:21.598Z,4.75
2016-12-16T08:09:30.994Z,4.75
2016-12-16T08:10:40.371Z,4.76
2016-12-16T08:11:50.708Z,4.78
2016-12-16T08:13:00.735Z,4.83
2016-12-16T08:14:11.065Z,4.9
2016-12-16T08:15:20.459Z,4.95
2016-12-16T08:16:30.477Z,4.92
2016-12-16T08:17:40.492Z,5.02
2016-12-16T08:18:50.863Z,4.97
2016-12-16T08:20:01.199Z,4.94
2016-12-16T08:21:11.536Z,5.02
2016-12-16T08:22:21.858Z,4.97
2016-12-16T08:23:31.871Z,5
2016-12-16T08:24:42.196Z,5.05
2016-12-16T08:25:52.212Z,5.1
2016-12-16T08:27:02.229Z,5.06
2016-12-16T08:28:12.257Z,5.21
2016-12-16T08:29:22.573Z,5.15
2016-12-16T08:30:32.907Z,5.2
2016-12-16T08:31:43.231Z,5.28
2016-12-16T08:32:53.243Z,5.31
2016-12-16T08:34:02.936Z,5.36
2016-12-16T08:35:13.257Z,5.41
2016-12-16T08:36:23.287Z,5.33
2016-12-16T08:37:33.321Z,5.37
2016-12-16T08:38:43.662Z,5.36
2016-12-16T08:39:54.028Z,5.39
2016-12-16T08:41:04.055Z,5.39
2016-12-16T08:42:14.065Z,5.49
2016-12-16T08:43:24.095Z,5.46
2016-12-16T08:44:33.850Z,5.52
2016-12-16T08:45:43.875Z,5.46
2016-12-16T08:46:54.206Z,5.49
2016-12-16T08:48:04.535Z,5.46
2016-12-16T08:49:14.877Z,5.48
2016-12-16T08:50:24.573Z,5.6
2016-12-16T08:51:34.606Z,5.63
2016-12-16T08:52:44.627Z,5.55
2016-12-16T08:53:54.956Z,5.59
2016-12-16T08:55:04.984Z,5.63
2016-12-16T08:56:15.338Z,5.6
2016-12-16T08:57:25.669Z,5.69
2016-12-16T08:58:35.982Z,5.69
2016-12-16T08:59:46.001Z,5.62
2016-12-16T09:00:56.344Z,5.69
2016-12-16T09:02:06.676Z,5.7
2016-12-16T09:03:17.023Z,5.77
2016-12-16T09:04:26.735Z,5.84
2016-12-16T09:05:36.737Z,5.89
2016-12-16T09:06:47.049Z,5.84
2016-12-16T09:07:57.059Z,5.98
2016-12-16T09:09:07.086Z,5.99
2016-12-16T09:10:17.458Z,5.98
2016-12-16T09:11:27.479Z,5.91
2016-12-16T09:12:37.176Z,6.02
2016-12-16T09:13:46.888Z,5.96
2016-12-16T09:14:57.245Z,6.09
2016-12-16T09:16:07.569Z,6.1
2016-12-16T09:17:16.990Z,6.24
2016-12-16T09:18:27.002Z,6.34
2016-12-16T09:19:37.343Z,6.29
2016-12-16T09:20:47.368Z,6.21
2016-12-16T09:21:57.687Z,6.25
2016-12-16T09:23:07.388Z,6.33
2016-12-16T09:24:17.399Z,6.37
2016-12-16T09:25:27.741Z,6.4
2016-12-16T09:26:37.748Z,6.33
2016-12-16T09:27:48.064Z,6.28
2016-12-16T09:28:58.385Z,6.29
2016-12-16T09:30:08.423Z,6.29
2016-12-16T09:31:18.129Z,6.42
2016-12-16T09:32:28.485Z,6.44
2016-12-16T09:33:38.504Z,6.42
2016-12-16T09:34:48.853Z,6.47
2016-12-16T09:35:58.871Z,6.54
2016-12-16T09:37:08.916Z,6.57
2016-12-16T09:38:19.252Z,6.52
2016-12-16T09:39:29.591Z,6.58
2016-12-16T09:40:39.621Z,6.67
2016-12-16T09:41:49.635Z,6.65
2016-12-16T09:42:59.965Z,6.76
2016-12-16T09:44:09.979Z,6.79
2016-12-16T09:45:20.309Z,6.76
2016-12-16T09:46:30.321Z,6.79
2016-12-16T09:47:40.337Z,6.76
2016-12-16T09:48:50.039Z,6.76
2016-12-16T09:50:00.357Z,6.79
2016-12-16T09:51:10.687Z,6.79
2016-12-16T09:52:20.101Z,6.9
2016-12-16T09:53:30.121Z,6.8
2016-12-16T09:54:39.536Z,6.94
2016-12-16T09:55:49.859Z,6.93
2016-12-16T09:57:00.176Z,7
2016-12-16T09:58:09.899Z,6.98
2016-12-16T09:59:20.210Z,6.94
2016-12-16T10:00:30.225Z,6.91
2016-12-16T10:01:40.575Z,7.04
2016-12-16T10:02:50.895Z,6.95
2016-12-16T10:04:01.220Z,7.12
2016-12-16T10:05:11.554Z,7.15
2016-12-16T10:06:21.928Z,7.16
2016-12-16T10:07:31.940Z,7.27
2016-12-16T10:08:41.972Z,7.27
2016-12-16T10:09:52.004Z,7.27
2016-12-16T10:11:02.057Z,7.22
2016-12-16T10:12:12.393Z,7.29
2016-12-16T10:13:22.409Z,7.33
2016-12-16T10:14:32.426Z,7.33
2016-12-16T10:15:42.447Z,7.44
2016-12-16T10:16:52.765Z,7.49
2016-12-16T10:18:03.092Z,7.56
2016-12-16T10:19:12.807Z,7.59
2016-12-16T10:20:22.741Z,7.59
2016-12-16T10:21:33.076Z,7.64
2016-12-16T10:22:43.396Z,7.67
2016-12-16T10:23:53.714Z,7.78
2016-12-16T10:25:04.090Z,7.88
2016-12-16T10:26:14.415Z,7.89
2016-12-16T10:27:24.744Z,7.92
2016-12-16T10:28:35.077Z,7.85
2016-12-16T10:29:45.114Z,7.83
2016-12-16T10:30:55.447Z,7.86
2016-12-16T10:32:05.466Z,7.8
2016-12-16T10:33:15.479Z,7.78
2016-12-16T10:34:25.500Z,7.89
2016-12-16T10:35:34.898Z,7.86
2016-12-16T10:36:44.909Z,7.89
2016-12-16T10:37:54.924Z,7.88
2016-12-16T10:39:05.275Z,7.96
2016-12-16T10:40:15.593Z,8.04
2016-12-16T10:41:25.303Z,8.19
2016-12-16T10:42:35.631Z,8.07
2016-12-16T10:43:45.643Z,8.16
2016-12-16T10:44:55.655Z,8.26
2016-12-16T10:46:05.987Z,8.36
2016-12-16T10:47:15.723Z,8.34
2016-12-16T10:48:26.044Z,8.31
2016-12-16T10:49:36.062Z,8.36
2016-12-16T10:50:46.382Z,8.35
2016-12-16T10:51:56.714Z,8.32
2016-12-16T10:53:06.109Z,8.31
2016-12-16T10:54:16.427Z,8.31
2016-12-16T10:55:26.453Z,8.4
2016-12-16T10:56:36.775Z,8.39
2016-12-16T10:57:46.781Z,8.36
2016-12-16T10:58:56.804Z,8.36
2016-12-16T11:00:07.120Z,8.5
2016-12-16T11:01:17.165Z,8.43
2016-12-16T11:02:26.888Z,8.52
2016-12-16T11:03:36.614Z,8.47
2016-12-16T11:04:46.942Z,8.52
2016-12-16T11:05:56.967Z,8.43
2016-12-16T11:07:07.289Z,8.46
2016-12-16T11:08:16.995Z,8.42
2016-12-16T11:09:26.708Z,8.58
2016-12-16T11:10:36.721Z,8.49
2016-12-16T11:11:46.737Z,8.54
2016-12-16T11:12:57.059Z,8.67
2016-12-16T11:14:07.389Z,8.67
2016-12-16T11:15:17.416Z,8.77
2016-12-16T11:16:27.742Z,8.77
2016-12-16T11:17:38.056Z,8.71
2016-12-16T11:18:48.427Z,8.69
2016-12-16T11:19:58.757Z,8.71
2016-12-16T11:21:09.088Z,8.76
2016-12-16T11:22:18.796Z,8.74
2016-12-16T11:23:28.813Z,8.83
2016-12-16T11:24:39.129Z,9
2016-12-16T11:25:48.522Z,9.12
2016-12-16T11:26:58.863Z,8.94
2016-12-16T11:28:08.875Z,9.11
2016-12-16T11:29:19.188Z,9.16
2016-12-16T11:30:29.199Z,9.19
2016-12-16T11:31:38.912Z,9.16
2016-12-16T11:32:49.253Z,9.16
2016-12-16T11:33:58.959Z,9.08
2016-12-16T11:35:09.287Z,9.14
2016-12-16T11:36:19.288Z,9.14
2016-12-16T11:37:29.618Z,8.95
2016-12-16T11:38:39.320Z,8.95
2016-12-16T11:39:49.644Z,8.89
2016-12-16T11:40:59.655Z,8.82
2016-12-16T11:42:09.992Z,8.72
2016-12-16T11:43:20.329Z,8.87
2016-12-16T11:44:30.663Z,8.83
2016-12-16T11:45:40.692Z,8.83
2016-12-16T11:46:51.033Z,8.85
2016-12-16T11:48:01.389Z,8.8
2016-12-16T11:49:11.456Z,8.76
2016-12-16T11:50:21.777Z,8.76
2016-12-16T11:51:32.115Z,8.8
2016-12-16T11:52:42.457Z,8.77
2016-12-16T11:53:52.786Z,8.83
2016-12-16T11:55:03.115Z,8.89
2016-12-16T11:56:12.217Z,8.8
2016-12-16T11:57:22.541Z,8.8
2016-12-16T11:58:32.566Z,8.85
2016-12-16T11:59:42.892Z,8.85
2016-12-16T12:00:52.647Z,8.77
2016-12-16T12:02:02.656Z,8.77
2016-12-16T12:03:12.977Z,8.85
2016-12-16T12:04:22.679Z,8.77
2016-12-16T12:05:33.007Z,8.79
2016-12-16T12:06:42.741Z,8.76
2016-12-16T12:07:52.446Z,8.85
2016-12-16T12:09:02.468Z,8.85
2016-12-16T12:10:12.478Z,8.71
2016-12-16T12:11:22.828Z,8.72
2016-12-16T12:12:32.842Z,8.76
2016-12-16T12:13:42.542Z,8.86
2016-12-16T12:14:52.560Z,8.82
2016-12-16T12:16:02.578Z,8.74
2016-12-16T12:17:12.274Z,9.23
2016-12-16T12:18:22.293Z,10.14
2016-12-16T12:19:32.332Z,11.24
2016-12-16T12:20:42.357Z,11.95
2016-12-16T12:21:52.066Z,12.4
2016-12-16T12:23:02.397Z,12.74
2016-12-16T12:24:12.414Z,13.01
2016-12-16T12:25:22.116Z,13.31
2016-12-16T12:26:32.457Z,13.2
2016-12-16T12:27:42.465Z,12.53
2016-12-16T12:28:52.490Z,11.67
2016-12-16T12:30:02.540Z,11.23
2016-12-16T12:31:12.254Z,10.79
2016-12-16T12:32:22.590Z,10.58
2016-12-16T12:33:32.608Z,10.69
2016-12-16T12:34:42.921Z,10.83
2016-12-16T12:35:53.252Z,10.87
2016-12-16T12:37:03.587Z,10.77
2016-12-16T12:38:13.932Z,10.69
2016-12-16T12:39:23.951Z,10.36
2016-12-16T12:40:34.275Z,10.1
2016-12-16T12:41:43.679Z,9.96
2016-12-16T12:42:52.457Z,9.85
2016-12-16T12:44:02.813Z,9.62
2016-12-16T12:45:13.141Z,9.56
2016-12-16T12:46:23.162Z,9.47
2016-12-16T12:47:33.190Z,9.41
2016-12-16T12:48:43.522Z,9.41
2016-12-16T12:49:53.263Z,9.26
2016-12-16T12:51:03.581Z,9.21
2016-12-16T12:52:13.897Z,9.2
2016-12-16T12:53:23.604Z,9.12
2016-12-16T12:54:33.925Z,9.08
2016-12-16T12:55:43.941Z,8.98
2016-12-16T12:56:54.277Z,8.9
2016-12-16T12:58:04.608Z,8.94
2016-12-16T12:59:14.306Z,8.86
2016-12-16T13:00:24.632Z,8.77
2016-12-16T13:01:34.655Z,8.85
2016-12-16T13:02:44.673Z,8.72
2016-12-16T13:03:55.007Z,8.72
2016-12-16T13:05:04.734Z,8.61
2016-12-16T13:06:15.056Z,8.6
2016-12-16T13:07:25.372Z,8.61
2016-12-16T13:08:35.421Z,8.47
2016-12-16T13:09:45.441Z,8.47
2016-12-16T13:10:55.454Z,8.44
2016-12-16T13:12:05.771Z,8.43
2016-12-16T13:13:15.791Z,8.46
2016-12-16T13:14:26.124Z,8.42
2016-12-16T13:15:36.451Z,8.39
2016-12-16T13:16:46.497Z,8.32
2016-12-16T13:17:56.829Z,8.28
2016-12-16T13:19:07.163Z,8.19
2016-12-16T13:20:16.872Z,8.16
2016-12-16T13:21:26.576Z,8.21
2016-12-16T13:22:36.836Z,8.13
2016-12-16T13:23:47.159Z,7.96
2016-12-16T13:24:56.555Z,8.01
2016-12-16T13:26:06.566Z,8.09
2016-12-16T13:27:16.875Z,8.09
2016-12-16T13:28:27.226Z,8.03
2016-12-16T13:29:37.277Z,7.98
2016-12-16T13:30:47.294Z,7.91
2016-12-16T13:31:57.312Z,7.91
2016-12-16T13:33:07.642Z,7.95
2016-12-16T13:34:17.987Z,7.83
2016-12-16T13:35:28.019Z,7.89
2016-12-16T13:36:38.350Z,7.82
2016-12-16T13:37:47.748Z,7.82
2016-12-16T13:38:57.454Z,7.88
2016-12-16T13:40:07.480Z,7.75
2016-12-16T13:41:17.812Z,7.73
2016-12-16T13:42:28.149Z,7.74
2016-12-16T13:43:38.465Z,7.73
2016-12-16T13:44:48.824Z,7.68
2016-12-16T13:45:59.159Z,7.61
2016-12-16T13:47:09.206Z,7.64
2016-12-16T13:48:19.223Z,7.55
2016-12-16T13:49:28.929Z,7.58
2016-12-16T13:50:38.937Z,7.52
2016-12-16T13:51:48.952Z,7.49
2016-12-16T13:52:59.305Z,7.44
2016-12-16T13:54:10.381Z,7.37
2016-12-16T13:55:20.390Z,7.31
2016-12-16T13:56:30.406Z,7.29
2016-12-16T13:57:40.772Z,7.26
2016-12-16T13:58:50.812Z,7.26
2016-12-16T14:00:01.245Z,7.26
2016-12-16T14:01:11.286Z,7.19
2016-12-16T14:02:21.621Z,7.16
2016-12-16T14:03:31.949Z,7.08
2016-12-16T14:04:41.967Z,7.03
2016-12-16T14:05:52.330Z,7.05
2016-12-16T14:07:02.500Z,6.97
2016-12-16T14:08:12.562Z,6.93
2016-12-16T14:09:22.617Z,6.8
2016-12-16T14:10:32.649Z,6.76
2016-12-16T14:11:42.721Z,6.68
2016-12-16T14:12:53.158Z,6.7
2016-12-16T14:14:03.490Z,6.64
2016-12-16T14:15:13.084Z,6.52
2016-12-16T14:16:23.124Z,6.52
2016-12-16T14:17:33.159Z,6.46
2016-12-16T14:18:43.501Z,6.46
2016-12-16T14:19:53.223Z,6.33
2016-12-16T14:21:03.579Z,6.29
2016-12-16T14:22:13.913Z,6.24
2016-12-16T14:23:24.396Z,6.1
2016-12-16T14:24:34.173Z,6.14
2016-12-16T14:25:44.523Z,6.03
2016-12-16T14:26:54.868Z,6.03
2016-12-16T14:28:04.607Z,5.92
2016-12-16T14:29:14.635Z,5.89
2016-12-16T14:30:24.672Z,5.8
2016-12-16T14:31:34.695Z,5.84
2016-12-16T14:32:45.393Z,5.75
2016-12-16T14:33:55.751Z,5.73
2016-12-16T14:35:06.099Z,5.78
2016-12-16T14:36:16.523Z,5.75
2016-12-16T14:37:26.246Z,5.7
2016-12-16T14:38:36.580Z,5.66
2016-12-16T14:39:47.039Z,5.57
2016-12-16T14:40:57.442Z,5.48
2016-12-16T14:42:07.856Z,5.45
2016-12-16T14:43:17.976Z,5.51
2016-12-16T14:44:28.006Z,5.39
2016-12-16T14:45:38.054Z,5.37
2016-12-16T14:46:48.397Z,5.37
2016-12-16T14:47:58.748Z,5.42
2016-12-16T14:49:08.776Z,5.31
2016-12-16T14:50:19.131Z,5.2
2016-12-16T14:51:28.843Z,5.23
2016-12-16T14:52:38.639Z,5.28
2016-12-16T14:53:48.686Z,5.18
2016-12-16T14:54:58.758Z,5.13
2016-12-16T14:56:09.071Z,5.13
2016-12-16T14:57:19.422Z,5.08
2016-12-16T14:58:29.764Z,4.94
2016-12-16T14:59:39.801Z,5.09
2016-12-16T15:00:49.708Z,5
2016-12-16T15:02:00.860Z,4.92
2016-12-16T15:03:10.909Z,4.87
2016-12-16T15:04:21.293Z,4.91
2016-12-16T15:05:31.312Z,4.84
2016-12-16T15:06:41.685Z,4.85
2016-12-16T15:07:52.017Z,4.74
2016-12-16T15:09:02.443Z,4.74
2016-12-16T15:10:12.769Z,4.76
2016-12-16T15:11:22.777Z,4.65
2016-12-16T15:12:33.118Z,4.69
2016-12-16T15:13:43.456Z,4.65
2016-12-16T15:14:53.158Z,4.66
2016-12-16T15:16:02.552Z,4.56
2016-12-16T15:17:12.908Z,4.54
2016-12-16T15:18:23.253Z,4.5
2016-12-16T15:19:33.344Z,4.54
2016-12-16T15:20:43.383Z,4.47
2016-12-16T15:21:53.776Z,4.53
2016-12-16T15:23:04.142Z,4.48
2016-12-16T15:24:13.539Z,4.46
2016-12-16T15:25:23.876Z,4.38
2016-12-16T15:26:33.904Z,4.4
2016-12-16T15:27:43.629Z,4.38
2016-12-16T15:28:53.977Z,4.32
2016-12-16T15:30:04.339Z,4.32
2016-12-16T15:31:14.664Z,4.22
2016-12-16T15:32:24.683Z,4.21
2016-12-16T15:33:34.396Z,4.18
2016-12-16T15:34:44.440Z,4.24
2016-12-16T15:35:54.769Z,4.17
2016-12-16T15:37:04.814Z,4.17
2016-12-16T15:38:14.824Z,4.21
2016-12-16T15:39:25.143Z,4.12
2016-12-16T15:40:35.533Z,4.12
2016-12-16T15:41:44.924Z,4.18
2016-12-16T15:42:55.256Z,4.21
2016-12-16T15:44:05.311Z,4.15
2016-12-16T15:45:15.024Z,4.08
2016-12-16T15:46:25.376Z,4.1
2016-12-16T15:47:35.688Z,4.07
2016-12-16T15:48:45.711Z,4
2016-12-16T15:49:56.061Z,4
2016-12-16T15:51:06.401Z,3.86
2016-12-16T15:52:16.116Z,4
2016-12-16T15:53:26.462Z,3.92
2016-12-16T15:54:36.480Z,3.94
2016-12-16T15:55:46.526Z,4.02
2016-12-16T15:56:56.897Z,3.96
2016-12-16T15:58:06.919Z,3.82
2016-12-16T15:59:17.260Z,3.94
2016-12-16T16:00:27.574Z,3.84
2016-12-16T16:01:37.915Z,3.81
2016-12-16T16:02:48.252Z,3.79
2016-12-16T16:03:58.606Z,3.85
2016-12-16T16:05:08.940Z,3.84
2016-12-16T16:06:19.280Z,3.85